createdAt,value
2023-03-26T00:01:16.115Z,77.35
2023-03-26T00:03:44.771Z,78.57
2023-03-26T00:06:14.436Z,72.88
2023-03-26T00:08:44.522Z,73.75
2023-03-26T00:11:14.815Z,70.43
2023-03-26T00:13:44.565Z,76.03
2023-03-26T00:16:16.762Z,76.75
2023-03-26T00:18:44.717Z,83.32
2023-03-26T00:21:14.731Z,72.78
2023-03-26T00:23:44.863Z,81.57
2023-03-26T00:26:21.594Z,71.53
2023-03-26T00:28:49.980Z,77.95
2023-03-26T00:31:19.195Z,74.50
2023-03-26T00:33:59.120Z,76.32
2023-03-26T00:36:27.246Z,71.80
2023-03-26T00:38:55.202Z,74.72
2023-03-26T00:41:26.387Z,77.95
2023-03-26T00:43:57.203Z,77.78
2023-03-26T00:46:29.519Z,73.20
2023-03-26T00:48:59.632Z,66.32
2023-03-26T00:51:28.642Z,78.80
2023-03-26T00:53:57.008Z,69.30
2023-03-26T00:56:26.203Z,71.32
2023-03-26T00:58:53.820Z,68.13
2023-03-26T01:01:24.538Z,80.78
2023-03-26T01:04:06.861Z,62.50
2023-03-26T01:06:39.003Z,74.03
2023-03-26T01:09:13.931Z,74.03
2023-03-26T01:11:42.064Z,85.03
2023-03-26T01:14:13.002Z,77.25
2023-03-26T01:16:44.010Z,90.68
2023-03-26T01:19:19.037Z,107.22
2023-03-26T01:21:46.848Z,100.93
2023-03-26T01:24:16.210Z,110.18
2023-03-26T01:27:04.722Z,96.03
2023-03-26T01:29:38.452Z,95.88
2023-03-26T01:32:18.433Z,87.03
2023-03-26T01:35:02.822Z,71.50
2023-03-26T01:37:41.103Z,75.68
2023-03-26T01:40:17.947Z,79.20
2023-03-26T01:42:53.670Z,83.28
2023-03-26T01:45:25.419Z,71.00
2023-03-26T01:47:53.354Z,76.15
2023-03-26T01:50:21.250Z,82.00
2023-03-26T01:52:49.080Z,74.32
2023-03-26T01:55:19.540Z,67.88
2023-03-26T01:57:59.844Z,70.03
2023-03-26T02:00:32.042Z,74.25
2023-03-26T02:03:12.568Z,64.82
2023-03-26T02:05:47.096Z,71.53
2023-03-26T02:08:20.883Z,73.85
2023-03-26T02:10:52.882Z,59.60
2023-03-26T02:13:20.871Z,66.82
2023-03-26T02:15:56.522Z,74.63
2023-03-26T02:18:25.096Z,68.75
2023-03-26T02:20:53.100Z,69.03
2023-03-26T02:23:21.110Z,58.03
2023-03-26T02:25:51.955Z,67.88
2023-03-26T02:28:21.250Z,59.83
2023-03-26T02:30:48.870Z,66.07
2023-03-26T02:33:16.628Z,63.78
2023-03-26T02:35:44.807Z,61.65
2023-03-26T02:38:12.507Z,58.95
2023-03-26T02:40:40.678Z,62.70
2023-03-26T02:43:11.456Z,59.80
2023-03-26T02:45:39.998Z,65.93
2023-03-26T02:48:07.727Z,62.33
2023-03-26T02:50:35.822Z,65.75
2023-03-26T02:53:03.450Z,70.88
2023-03-26T02:55:32.495Z,63.92
2023-03-26T02:58:00.377Z,71.32
2023-03-26T03:00:30.173Z,67.82
2023-03-26T03:02:58.368Z,75.35
2023-03-26T03:05:26.353Z,61.22
2023-03-26T03:07:56.318Z,66.55
2023-03-26T03:10:28.168Z,56.40
2023-03-26T03:12:56.061Z,60.42
2023-03-26T03:15:26.001Z,56.78
2023-03-26T03:17:55.319Z,61.40
2023-03-26T03:20:23.093Z,65.43
2023-03-26T03:22:51.442Z,63.55
2023-03-26T03:25:19.670Z,61.38
2023-03-26T03:27:47.460Z,59.65
2023-03-26T03:30:15.256Z,62.78
2023-03-26T03:32:43.130Z,63.55
2023-03-26T03:35:14.136Z,73.30
2023-03-26T03:37:43.028Z,66.85
2023-03-26T03:40:11.359Z,68.68
2023-03-26T03:42:39.634Z,77.25
2023-03-26T03:45:08.936Z,58.65
2023-03-26T03:47:51.496Z,73.15
2023-03-26T03:50:21.107Z,66.78
2023-03-26T03:52:48.793Z,77.07
2023-03-26T03:55:16.431Z,63.67
2023-03-26T03:57:44.782Z,71.80
2023-03-26T04:00:14.186Z,54.85
2023-03-26T04:02:42.285Z,66.93
2023-03-26T04:05:15.651Z,60.38
2023-03-26T04:07:44.707Z,95.55
2023-03-26T04:10:15.671Z,110.75
2023-03-26T04:12:44.982Z,96.00
2023-03-26T04:15:12.589Z,81.63
2023-03-26T04:17:40.453Z,66.32
2023-03-26T04:20:10.755Z,77.63
2023-03-26T04:22:38.710Z,72.82
2023-03-26T04:25:12.749Z,68.25
2023-03-26T04:30:12.112Z,54.05
2023-03-26T04:32:39.997Z,63.33
2023-03-26T04:35:11.517Z,49.80
2023-03-26T04:37:44.323Z,49.28
2023-03-26T04:40:15.239Z,49.13
2023-03-26T04:42:43.021Z,50.15
2023-03-26T04:45:11.289Z,44.20
2023-03-26T04:47:39.152Z,54.67
2023-03-26T04:50:09.693Z,54.05
2023-03-26T04:52:38.309Z,62.33
2023-03-26T04:55:12.946Z,61.90
2023-03-26T04:57:45.537Z,58.42
2023-03-26T05:00:15.681Z,54.83
2023-03-26T05:02:43.772Z,73.00
2023-03-26T05:05:11.891Z,61.15
2023-03-26T05:07:39.570Z,57.50
2023-03-26T05:10:13.684Z,55.10
2023-03-26T05:12:43.177Z,68.20
2023-03-26T05:15:12.260Z,62.13
2023-03-26T05:17:41.597Z,74.53
2023-03-26T05:20:17.781Z,76.88
2023-03-26T05:22:50.986Z,69.05
2023-03-26T05:25:20.027Z,69.75
2023-03-26T05:27:49.155Z,60.20
2023-03-26T05:30:19.262Z,69.72
2023-03-26T05:32:48.434Z,73.70
2023-03-26T05:35:17.103Z,71.70
2023-03-26T05:37:49.216Z,66.05
2023-03-26T05:40:17.511Z,72.20
2023-03-26T05:42:45.193Z,66.40
2023-03-26T05:45:15.271Z,59.65
2023-03-26T05:47:43.471Z,67.07
2023-03-26T05:50:11.731Z,64.22
2023-03-26T05:52:41.565Z,70.93
2023-03-26T05:55:09.974Z,64.40
2023-03-26T05:57:38.013Z,62.50
2023-03-26T06:00:08.163Z,71.35
2023-03-26T06:02:37.732Z,68.85
2023-03-26T06:05:05.967Z,68.10
2023-03-26T06:07:35.597Z,60.17
2023-03-26T06:10:03.429Z,73.00
2023-03-26T06:12:31.195Z,76.85
2023-03-26T06:15:00.574Z,56.13
2023-03-26T06:17:28.424Z,77.25
2023-03-26T06:19:57.482Z,62.78
2023-03-26T06:22:26.110Z,55.33
2023-03-26T06:24:53.857Z,69.45
2023-03-26T06:27:24.558Z,61.47
2023-03-26T06:29:52.505Z,67.82
2023-03-26T06:32:20.730Z,72.25
2023-03-26T06:34:48.916Z,59.40
2023-03-26T06:37:18.177Z,63.80
2023-03-26T06:39:45.879Z,74.82
2023-03-26T06:42:13.557Z,81.35
2023-03-26T06:44:41.263Z,86.68
2023-03-26T06:47:10.070Z,71.53
2023-03-26T06:49:38.356Z,69.72
2023-03-26T06:52:12.213Z,67.72
2023-03-26T06:54:41.784Z,75.35
2023-03-26T06:57:09.426Z,71.00
2023-03-26T06:59:37.361Z,66.85
2023-03-26T07:02:05.290Z,82.30
2023-03-26T07:04:32.882Z,76.68
2023-03-26T07:07:01.584Z,69.70
2023-03-26T07:09:29.608Z,73.10
2023-03-26T07:11:58.723Z,73.97
2023-03-26T07:14:26.421Z,68.13
2023-03-26T07:16:54.330Z,62.47
2023-03-26T07:19:23.026Z,64.30
2023-03-26T07:21:51.904Z,57.15
2023-03-26T07:24:20.310Z,56.55
2023-03-26T07:26:56.727Z,53.63
2023-03-26T07:29:35.338Z,56.42
2023-03-26T07:32:18.915Z,85.43
2023-03-26T07:34:53.244Z,62.80
2023-03-26T07:37:33.148Z,80.13
2023-03-26T07:40:04.885Z,63.83
2023-03-26T07:42:50.770Z,60.58
2023-03-26T07:45:28.400Z,55.28
2023-03-26T07:47:56.626Z,59.90
2023-03-26T07:50:25.387Z,54.75
2023-03-26T07:52:53.573Z,73.63
2023-03-26T07:55:22.059Z,77.82
2023-03-26T07:57:58.835Z,67.95
2023-03-26T08:00:34.197Z,70.53
2023-03-26T08:03:26.666Z,82.60
2023-03-26T08:06:05.613Z,99.82
2023-03-26T08:08:45.250Z,128.40
2023-03-26T08:11:27.908Z,82.85
2023-03-26T08:14:08.620Z,79.93
2023-03-26T08:16:46.574Z,73.60
2023-03-26T08:19:32.596Z,74.57
2023-03-26T08:22:08.978Z,71.32
2023-03-26T08:24:43.340Z,76.85
2023-03-26T08:27:20.902Z,87.47
2023-03-26T08:29:59.803Z,79.32
2023-03-26T08:32:29.696Z,77.82
2023-03-26T08:34:57.600Z,100.63
2023-03-26T08:37:25.208Z,74.78
2023-03-26T08:39:53.282Z,89.20
2023-03-26T08:43:04.256Z,91.50
2023-03-26T08:46:11.768Z,93.15
2023-03-26T08:49:05.695Z,91.63
2023-03-26T08:52:26.968Z,92.72
2023-03-26T08:55:23.017Z,100.97
2023-03-26T08:58:36.881Z,93.05
2023-03-26T09:01:28.993Z,92.85
2023-03-26T09:04:29.060Z,115.47
2023-03-26T09:07:24.681Z,107.22
2023-03-26T09:10:31.185Z,103.03
2023-03-26T09:13:35.477Z,100.15
2023-03-26T09:16:47.779Z,90.55
2023-03-26T09:19:58.036Z,101.88
2023-03-26T09:22:51.199Z,94.57
2023-03-26T09:25:55.110Z,92.13
2023-03-26T09:28:56.057Z,97.80
2023-03-26T09:31:44.889Z,91.60
2023-03-26T09:34:27.879Z,92.60
2023-03-26T09:36:56.947Z,93.63
2023-03-26T09:39:38.186Z,81.95
2023-03-26T09:42:13.929Z,82.38
2023-03-26T09:45:06.591Z,75.95
2023-03-26T09:48:09.380Z,75.10
2023-03-26T09:51:07.265Z,67.57
2023-03-26T09:53:51.601Z,71.57
2023-03-26T09:56:35.694Z,61.53
2023-03-26T09:59:23.101Z,57.38
2023-03-26T10:01:58.716Z,58.03
2023-03-26T10:05:01.838Z,57.90
2023-03-26T10:07:49.369Z,67.25
2023-03-26T10:10:28.884Z,61.00
2023-03-26T10:13:14.108Z,83.00
2023-03-26T10:15:58.467Z,71.82
2023-03-26T10:18:40.752Z,100.05
2023-03-26T10:21:18.824Z,61.80
2023-03-26T10:24:00.832Z,63.20
2023-03-26T10:27:09.385Z,64.45
2023-03-26T10:32:40.603Z,59.75
2023-03-26T10:35:25.704Z,97.90
2023-03-26T10:38:05.732Z,73.72
2023-03-26T10:40:40.325Z,58.22
2023-03-26T10:43:46.421Z,64.28
2023-03-26T10:46:47.273Z,68.00
2023-03-26T10:49:38.232Z,54.30
2023-03-26T10:52:09.250Z,54.40
2023-03-26T10:54:50.595Z,64.03
2023-03-26T10:57:33.830Z,74.65
2023-03-26T11:00:14.336Z,78.90
2023-03-26T11:05:34.647Z,53.28
2023-03-26T11:08:06.756Z,116.00
2023-03-26T11:10:49.065Z,48.00
2023-03-26T11:13:26.156Z,62.97
2023-03-26T11:16:00.757Z,49.53
2023-03-26T11:18:41.557Z,44.47
2023-03-26T11:21:20.611Z,48.08
2023-03-26T11:24:05.009Z,42.28
2023-03-26T11:26:47.563Z,55.15
2023-03-26T11:29:31.296Z,52.50
2023-03-26T11:32:06.683Z,57.25
2023-03-26T11:34:39.110Z,49.08
2023-03-26T11:37:17.141Z,56.15
2023-03-26T11:39:50.931Z,56.83
2023-03-26T11:42:22.961Z,78.32
2023-03-26T11:44:55.129Z,84.25
2023-03-26T11:47:29.368Z,79.05
2023-03-26T11:50:00.267Z,70.80
2023-03-26T11:52:29.426Z,60.28
2023-03-26T11:54:57.426Z,63.03
2023-03-26T11:57:30.075Z,56.78
2023-03-26T12:00:01.972Z,46.55
2023-03-26T12:02:31.453Z,60.92
2023-03-26T12:05:14.886Z,77.55
2023-03-26T12:07:53.069Z,57.03
2023-03-26T12:10:26.652Z,60.53
2023-03-26T12:13:00.246Z,34.35
2023-03-26T12:15:31.472Z,35.97
2023-03-26T12:18:24.391Z,38.17
2023-03-26T12:21:04.747Z,38.58
2023-03-26T12:24:01.280Z,47.80
2023-03-26T12:26:36.136Z,32.90
2023-03-26T12:29:10.410Z,27.05
2023-03-26T12:31:57.174Z,21.75
2023-03-26T12:34:30.741Z,52.17
2023-03-26T12:36:59.037Z,44.42
2023-03-26T12:40:07.088Z,62.50
2023-03-26T12:44:51.111Z,187.73
2023-03-26T12:45:22.166Z,272.35
2023-03-26T12:47:57.562Z,51.28
2023-03-26T12:50:41.923Z,46.17
2023-03-26T12:53:37.780Z,41.88
2023-03-26T12:56:18.313Z,45.55
2023-03-26T12:59:06.449Z,34.33
2023-03-26T13:01:47.744Z,48.13
2023-03-26T13:04:35.059Z,96.93
2023-03-26T13:07:14.365Z,295.13
2023-03-26T13:10:05.448Z,209.65
2023-03-26T13:12:45.572Z,176.57
2023-03-26T13:15:23.419Z,123.60
2023-03-26T13:18:07.442Z,44.10
2023-03-26T13:20:49.811Z,45.03
2023-03-26T13:23:31.007Z,118.78
2023-03-26T13:26:15.733Z,47.67
2023-03-26T13:28:54.442Z,52.85
2023-03-26T13:31:27.711Z,73.72
2023-03-26T13:34:06.806Z,76.22
2023-03-26T13:36:45.554Z,186.35
2023-03-26T13:39:28.789Z,245.75
2023-03-26T13:42:11.295Z,310.75
2023-03-26T13:44:50.978Z,377.52
2023-03-26T13:47:24.170Z,85.43
2023-03-26T13:49:55.968Z,72.65
2023-03-26T13:52:26.973Z,64.72
2023-03-26T13:55:04.623Z,95.90
2023-03-26T13:57:38.781Z,185.98
2023-03-26T14:00:15.296Z,102.03
2023-03-26T14:02:46.184Z,90.30
2023-03-26T14:05:24.195Z,39.25
2023-03-26T14:07:56.430Z,33.50
2023-03-26T14:10:27.494Z,36.13
2023-03-26T14:13:01.627Z,35.55
2023-03-26T14:15:40.804Z,35.28
2023-03-26T14:18:24.669Z,98.68
2023-03-26T14:21:20.810Z,171.18
2023-03-26T14:24:09.944Z,76.88
2023-03-26T14:27:07.088Z,53.38
2023-03-26T14:30:13.476Z,75.30
2023-03-26T14:32:52.791Z,64.20
2023-03-26T14:35:33.340Z,56.97
2023-03-26T14:38:24.376Z,56.65
2023-03-26T14:40:57.900Z,69.68
2023-03-26T14:43:49.972Z,111.35
2023-03-26T14:46:34.210Z,109.45
2023-03-26T14:49:40.423Z,145.38
2023-03-26T14:52:17.150Z,97.93
2023-03-26T14:54:53.671Z,66.20
2023-03-26T14:57:52.823Z,104.38
2023-03-26T15:00:56.334Z,121.38
2023-03-26T15:04:27.865Z,150.77
2023-03-26T15:10:34.819Z,87.28
2023-03-26T15:16:17.840Z,68.38
2023-03-26T15:19:31.639Z,70.35
2023-03-26T15:22:39.737Z,97.97
2023-03-26T15:25:53.666Z,96.38
2023-03-26T15:29:00.112Z,104.68
2023-03-26T15:31:50.150Z,127.60
2023-03-26T15:34:50.172Z,131.95
2023-03-26T15:38:04.393Z,192.43
2023-03-26T15:40:47.392Z,235.43
2023-03-26T15:43:19.623Z,248.02
2023-03-26T15:45:51.371Z,250.98
2023-03-26T15:48:32.713Z,249.38
2023-03-26T15:51:28.524Z,170.73
2023-03-26T15:54:04.392Z,140.10
2023-03-26T15:56:57.281Z,134.75
2023-03-26T15:59:38.899Z,154.90
2023-03-26T16:02:19.412Z,168.38
2023-03-26T16:04:53.036Z,238.48
2023-03-26T16:07:48.213Z,287.10
2023-03-26T16:10:35.842Z,238.68
2023-03-26T16:13:30.334Z,265.65
2023-03-26T16:16:19.950Z,269.42
2023-03-26T16:18:54.710Z,179.07
2023-03-26T16:21:54.558Z,182.38
2023-03-26T16:24:30.353Z,177.75
2023-03-26T16:27:30.167Z,227.15
2023-03-26T16:30:29.583Z,299.17
2023-03-26T16:33:10.885Z,234.05
2023-03-26T16:36:04.959Z,237.52
2023-03-26T16:39:11.471Z,191.93
2023-03-26T16:42:05.945Z,153.98
2023-03-26T16:44:45.110Z,159.23
2023-03-26T16:47:29.853Z,130.80
2023-03-26T16:50:11.985Z,142.95
2023-03-26T16:52:49.534Z,137.82
2023-03-26T16:55:23.086Z,140.00
2023-03-26T16:57:56.769Z,162.68
2023-03-26T17:00:42.765Z,150.02
2023-03-26T17:03:43.605Z,126.82
2023-03-26T17:06:48.236Z,142.88
2023-03-26T17:09:28.614Z,123.38
2023-03-26T17:12:07.791Z,135.40
2023-03-26T17:14:53.139Z,113.88
2023-03-26T17:17:38.055Z,82.63
2023-03-26T17:20:18.459Z,118.78
2023-03-26T17:22:54.664Z,104.03
2023-03-26T17:25:28.805Z,95.05
2023-03-26T17:28:16.139Z,89.05
2023-03-26T17:31:00.646Z,85.93
2023-03-26T17:33:33.572Z,89.65
2023-03-26T17:36:30.044Z,87.22
2023-03-26T17:39:41.644Z,90.32
2023-03-26T17:42:25.892Z,78.38
2023-03-26T17:44:55.248Z,77.05
2023-03-26T17:47:42.497Z,65.63
2023-03-26T17:50:14.567Z,72.15
2023-03-26T17:52:53.338Z,77.57
2023-03-26T17:55:26.170Z,127.13
2023-03-26T17:57:58.118Z,90.05
2023-03-26T18:00:29.397Z,60.63
2023-03-26T18:03:02.925Z,63.17
2023-03-26T18:08:40.431Z,62.35
2023-03-26T18:11:56.184Z,64.95
2023-03-26T18:14:54.808Z,64.35
2023-03-26T18:17:24.465Z,66.03
2023-03-26T18:20:04.962Z,67.80
2023-03-26T18:22:33.589Z,64.22
2023-03-26T18:25:03.379Z,94.20
2023-03-26T18:27:39.533Z,78.85
2023-03-26T18:30:19.679Z,61.40
2023-03-26T18:32:52.827Z,62.72
2023-03-26T18:35:27.562Z,134.50
2023-03-26T18:38:00.841Z,144.65
2023-03-26T18:40:32.751Z,65.03
2023-03-26T18:43:01.000Z,90.40
2023-03-26T18:45:32.948Z,89.13
2023-03-26T18:48:05.090Z,152.50
2023-03-26T18:50:35.269Z,143.00
2023-03-26T18:53:05.595Z,135.80
2023-03-26T18:55:35.864Z,105.85
2023-03-26T18:58:20.907Z,100.78
2023-03-26T19:00:56.135Z,94.10
2023-03-26T19:03:24.989Z,94.15
2023-03-26T19:05:56.230Z,77.30
2023-03-26T19:08:25.755Z,68.50
2023-03-26T19:10:57.407Z,65.35
2023-03-26T19:13:28.951Z,50.78
2023-03-26T19:15:59.266Z,53.30
2023-03-26T19:18:29.515Z,64.95
2023-03-26T19:20:59.598Z,69.68
2023-03-26T19:23:32.194Z,52.00
2023-03-26T19:26:02.226Z,62.13
2023-03-26T19:28:33.701Z,142.80
2023-03-26T19:31:10.173Z,127.50
2023-03-26T19:33:42.560Z,110.30
2023-03-26T19:36:19.341Z,114.70
2023-03-26T19:38:51.608Z,99.65
2023-03-26T19:41:22.999Z,77.55
2023-03-26T19:43:51.784Z,47.72
2023-03-26T19:46:22.227Z,42.70
2023-03-26T19:48:51.923Z,35.67
2023-03-26T19:51:22.118Z,35.58
2023-03-26T19:53:53.691Z,36.45
2023-03-26T19:56:22.193Z,39.70
2023-03-26T19:58:50.509Z,39.95
2023-03-26T20:01:20.752Z,32.38
2023-03-26T20:03:56.185Z,41.75
2023-03-26T20:06:33.986Z,40.15
2023-03-26T20:09:06.112Z,34.42
2023-03-26T20:11:36.155Z,40.83
2023-03-26T20:14:13.743Z,47.13
2023-03-26T20:16:45.443Z,37.42
2023-03-26T20:19:15.465Z,32.50
2023-03-26T20:21:46.772Z,38.58
2023-03-26T20:24:18.514Z,32.28
2023-03-26T20:26:46.869Z,34.00
2023-03-26T20:29:15.200Z,43.28
2023-03-26T20:31:43.422Z,28.98
2023-03-26T20:34:16.648Z,31.25
2023-03-26T20:36:44.873Z,27.45
2023-03-26T20:39:13.520Z,29.95
2023-03-26T20:41:49.032Z,32.85
2023-03-26T20:44:18.520Z,30.10
2023-03-26T20:46:47.919Z,28.40
2023-03-26T20:49:17.698Z,32.50
2023-03-26T20:51:45.938Z,29.27
2023-03-26T20:54:16.330Z,33.30
2023-03-26T20:56:45.064Z,33.92
2023-03-26T20:59:16.483Z,33.42
2023-03-26T21:01:45.018Z,32.92
2023-03-26T21:04:13.320Z,29.50
2023-03-26T21:06:42.690Z,36.55
2023-03-26T21:09:14.031Z,43.58
2023-03-26T21:11:51.873Z,41.50
2023-03-26T21:14:24.003Z,43.63
2023-03-26T21:16:52.793Z,42.60
2023-03-26T21:19:20.869Z,51.28
2023-03-26T21:22:12.683Z,48.20
2023-03-26T21:24:51.834Z,49.22
2023-03-26T21:27:27.798Z,54.30
2023-03-26T21:29:57.185Z,49.92
2023-03-26T21:32:25.925Z,42.28
2023-03-26T21:34:58.943Z,50.75
2023-03-26T21:37:29.295Z,67.57
2023-03-26T21:39:57.566Z,50.33
2023-03-26T21:42:28.416Z,55.38
2023-03-26T21:44:56.640Z,75.15
2023-03-26T21:47:28.293Z,61.45
2023-03-26T21:49:56.547Z,45.60
2023-03-26T21:52:24.922Z,47.90
2023-03-26T21:54:57.035Z,41.03
2023-03-26T21:57:40.631Z,38.83
2023-03-26T22:00:12.354Z,37.75
2023-03-26T22:02:49.579Z,43.70
2023-03-26T22:05:19.338Z,40.53
2023-03-26T22:07:54.753Z,37.00
2023-03-26T22:10:24.278Z,35.80
2023-03-26T22:15:21.455Z,37.88
2023-03-26T22:17:49.259Z,40.63
2023-03-26T22:20:17.913Z,37.60
2023-03-26T22:22:45.720Z,37.72
2023-03-26T22:25:13.588Z,36.53
2023-03-26T22:27:46.408Z,34.60
2023-03-26T22:30:15.084Z,42.15
2023-03-26T22:32:44.246Z,48.58
2023-03-26T22:35:12.893Z,49.10
2023-03-26T22:37:40.772Z,47.35
2023-03-26T22:40:10.606Z,39.78
2023-03-26T22:42:39.387Z,67.30
2023-03-26T22:45:10.686Z,262.48
2023-03-26T22:47:39.508Z,240.00
2023-03-26T22:50:08.795Z,195.82
2023-03-26T22:52:37.262Z,109.07
2023-03-26T22:55:05.717Z,59.65
2023-03-26T22:57:33.473Z,58.80
2023-03-26T23:00:01.178Z,81.47
2023-03-26T23:02:31.660Z,126.30
2023-03-26T23:04:59.374Z,98.85
2023-03-26T23:07:27.095Z,72.38
2023-03-26T23:09:54.897Z,117.15
2023-03-26T23:12:24.495Z,405.40
2023-03-26T23:14:53.542Z,409.80
2023-03-26T23:17:21.347Z,416.63
2023-03-26T23:19:56.351Z,398.40
2023-03-26T23:22:24.246Z,330.52
2023-03-26T23:24:51.796Z,313.05
2023-03-26T23:27:22.645Z,472.58
2023-03-26T23:29:50.665Z,506.35
2023-03-26T23:32:23.642Z,200.75
2023-03-26T23:34:53.105Z,335.88
2023-03-26T23:37:22.402Z,235.25
2023-03-26T23:39:50.261Z,368.77
2023-03-26T23:42:28.720Z,246.65
2023-03-26T23:44:57.612Z,170.25
2023-03-26T23:47:25.640Z,133.95
2023-03-26T23:49:53.844Z,346.23
2023-03-26T23:52:22.851Z,214.52
2023-03-26T23:54:50.665Z,91.13
2023-03-26T23:57:18.725Z,545.63
2023-03-26T23:59:46.440Z,533.35
